Time;durP1;ratioP1;P1;durP2;ratioP2;P2;SDS_P1;SDS_P2;PMS_P1;PMS_P2;Temp;Humidity;BMP_temperature;BMP_pressure;BME280_temperature;BME280_humidity;BME280_pressure;Samples;Min_cycle;Max_cycle;Signal;HPM_P1;HPM_P2
2022/03/14 00:00:16;;;;;;;4.93;4.43;;;11.70;24.30;;;;;;2606310;47;20992;-80
2022/03/14 00:02:42;;;;;;;4.77;3.80;;;11.80;24.70;;;;;;2605588;54;20423;-80
2022/03/14 00:05:10;;;;;;;5.20;3.57;;;11.90;24.10;;;;;;2611172;54;20451;-80
2022/03/14 00:07:37;;;;;;;4.00;3.53;;;11.70;26.90;;;;;;2611111;54;20967;-81
2022/03/14 00:10:04;;;;;;;4.10;3.70;;;11.70;27.40;;;;;;2611742;54;20416;-81
2022/03/14 00:12:31;;;;;;;3.80;3.50;;;11.90;26.40;;;;;;2610141;39;20818;-80
2022/03/14 00:15:01;;;;;;;4.00;3.60;;;11.80;26.00;;;;;;2611857;54;20419;-80
2022/03/14 00:17:28;;;;;;;4.10;3.70;;;11.80;26.50;;;;;;2610578;47;20422;-81
2022/03/14 00:19:59;;;;;;;7.47;4.57;;;11.90;25.40;;;;;;2610542;47;20470;-81
2022/03/14 00:22:26;;;;;;;4.17;3.77;;;11.90;25.10;;;;;;2611260;46;21298;-82
2022/03/14 00:24:52;;;;;;;4.13;3.63;;;11.90;24.40;;;;;;2611045;46;20415;-80
2022/03/14 00:27:19;;;;;;;4.17;3.77;;;11.80;24.60;;;;;;2611310;47;20454;-81
2022/03/14 00:29:44;;;;;;;4.70;3.90;;;11.70;25.80;;;;;;2609822;46;20416;-79
2022/03/14 00:32:10;;;;;;;6.60;3.50;;;11.60;28.10;;;;;;2610923;47;20430;-81
2022/03/14 00:34:36;;;;;;;5.70;4.43;;;11.40;30.50;;;;;;2611698;39;20436;-80
2022/03/14 00:37:03;;;;;;;3.63;3.33;;;11.40;31.80;;;;;;2611034;51;20539;-80
2022/03/14 00:39:28;;;;;;;4.43;4.03;;;11.60;30.50;;;;;;2610688;47;20312;-79
2022/03/14 00:41:54;;;;;;;5.10;4.60;;;11.40;31.40;;;;;;2611537;51;21533;-80
2022/03/14 00:44:20;;;;;;;3.17;2.87;;;11.60;30.60;;;;;;2612461;54;20155;-80
2022/03/14 00:46:46;;;;;;;4.53;3.67;;;11.70;29.40;;;;;;2611876;47;20435;-82
2022/03/14 00:49:12;;;;;;;4.20;3.87;;;11.60;30.10;;;;;;2612429;47;20444;-80
2022/03/14 00:51:40;;;;;;;4.33;3.70;;;11.60;30.00;;;;;;2613032;39;20658;-80
2022/03/14 00:54:06;;;;;;;3.90;3.60;;;11.50;30.40;;;;;;2612463;54;20424;-81
2022/03/14 00:56:35;;;;;;;5.73;4.10;;;11.40;31.80;;;;;;2612967;54;20429;-81
2022/03/14 00:59:02;;;;;;;6.70;4.07;;;11.40;32.50;;;;;;2612838;54;20460;-80
2022/03/14 01:01:28;;;;;;;3.83;3.53;;;11.30;34.30;;;;;;2612872;54;20424;-81
2022/03/14 01:03:55;;;;;;;3.77;3.43;;;11.30;35.20;;;;;;2612000;54;20437;-82
2022/03/14 01:06:22;;;;;;;7.23;4.60;;;11.30;35.60;;;;;;2611484;47;20450;-81
2022/03/14 01:08:48;;;;;;;4.67;3.70;;;11.40;35.90;;;;;;2611012;54;20420;-79
2022/03/14 01:11:14;;;;;;;5.03;4.30;;;11.50;35.00;;;;;;2611864;54;20450;-80
2022/03/14 01:13:41;;;;;;;8.13;4.50;;;11.60;33.20;;;;;;2610992;54;20242;-80
2022/03/14 01:16:07;;;;;;;5.70;4.23;;;11.60;32.80;;;;;;2610018;54;20425;-80
2022/03/14 01:18:33;;;;;;;5.07;4.33;;;11.60;32.80;;;;;;2611518;54;20510;-79
2022/03/14 01:20:59;;;;;;;5.50;4.30;;;11.50;32.50;;;;;;2611355;46;20174;-80
2022/03/14 01:23:26;;;;;;;4.43;4.07;;;11.50;34.60;;;;;;2610808;47;21508;-80
2022/03/14 01:25:52;;;;;;;4.33;3.93;;;11.60;34.70;;;;;;2611008;54;20407;-80
2022/03/14 01:28:18;;;;;;;5.40;4.77;;;11.60;35.40;;;;;;2610729;54;20154;-80
2022/03/14 01:30:44;;;;;;;5.63;4.47;;;11.60;39.70;;;;;;2611528;54;20412;-81
2022/03/14 01:33:13;;;;;;;9.20;5.20;;;11.70;46.80;;;;;;2610748;54;20438;-81
2022/03/14 01:35:41;;;;;;;5.97;4.67;;;11.60;49.70;;;;;;2610687;54;20420;-81
2022/03/14 01:38:09;;;;;;;14.93;5.70;;;11.50;54.90;;;;;;2609473;47;20507;-80
2022/03/14 01:40:35;;;;;;;6.30;4.50;;;11.40;56.60;;;;;;2611915;39;20880;-81
2022/03/14 01:43:01;;;;;;;8.97;4.67;;;11.40;60.90;;;;;;2610963;54;20439;-80
2022/03/14 01:45:30;;;;;;;5.37;4.47;;;11.40;66.10;;;;;;2609747;47;20466;-80
2022/03/14 01:47:55;;;;;;;5.33;4.80;;;11.30;69.60;;;;;;2611705;39;21091;-80
2022/03/14 01:50:22;;;;;;;5.60;5.10;;;11.10;70.30;;;;;;2610433;54;20439;-80
2022/03/14 01:52:48;;;;;;;9.27;4.80;;;11.10;72.90;;;;;;2611130;31;20885;-81
2022/03/14 01:55:16;;;;;;;6.33;4.93;;;11.00;78.70;;;;;;2610482;54;20414;-80
2022/03/14 01:57:43;;;;;;;9.53;6.03;;;11.10;83.10;;;;;;2610227;54;20419;-79
2022/03/14 02:00:11;;;;;;;7.33;5.90;;;10.90;88.70;;;;;;2610522;54;20419;-79
2022/03/14 02:02:44;;;;;;;6.10;5.17;;;10.90;91.90;;;;;;2611101;54;20439;-80
2022/03/14 02:05:12;;;;;;;7.27;5.90;;;10.80;94.70;;;;;;2610730;46;20431;-81
2022/03/14 02:07:38;;;;;;;6.83;6.13;;;10.70;99.90;;;;;;2610931;54;20509;-80
2022/03/14 02:10:04;;;;;;;8.03;6.40;;;10.60;99.30;;;;;;2611498;54;22509;-80
2022/03/14 02:12:31;;;;;;;7.00;5.87;;;10.80;98.50;;;;;;2610424;54;20428;-80
2022/03/14 02:14:58;;;;;;;6.67;5.40;;;10.90;97.40;;;;;;2611125;54;20423;-79
2022/03/14 02:17:23;;;;;;;6.40;5.50;;;10.90;96.90;;;;;;2611400;47;20407;-80
2022/03/14 02:19:52;;;;;;;7.83;6.37;;;10.80;98.20;;;;;;2611053;54;20512;-80
2022/03/14 02:22:19;;;;;;;6.27;5.60;;;10.70;99.90;;;;;;2611334;54;20439;-80
2022/03/14 02:24:46;;;;;;;6.80;5.77;;;10.80;99.90;;;;;;2611905;54;20551;-80
2022/03/14 02:27:15;;;;;;;7.50;6.80;;;10.80;99.50;;;;;;2610824;47;20439;-80
2022/03/14 02:29:41;;;;;;;5.87;5.37;;;10.80;99.90;;;;;;2610520;54;21427;-80
2022/03/14 02:32:11;;;;;;;6.67;5.93;;;10.70;99.90;;;;;;2611351;54;20411;-80
2022/03/14 02:34:41;;;;;;;6.80;5.70;;;10.70;99.90;;;;;;2611365;47;20461;-81
2022/03/14 02:37:07;;;;;;;6.57;5.83;;;10.70;99.90;;;;;;2611519;54;20432;-79
2022/03/14 02:39:34;;;;;;;6.60;5.50;;;10.70;99.90;;;;;;2611175;47;22923;-80
2022/03/14 02:42:01;;;;;;;7.23;6.53;;;10.80;99.90;;;;;;2609201;47;20479;-80
2022/03/14 02:44:28;;;;;;;19.97;7.20;;;10.60;99.90;;;;;;2609860;54;20519;-81
2022/03/14 02:46:58;;;;;;;7.97;6.20;;;10.50;99.90;;;;;;2611365;54;20456;-80
2022/03/14 02:49:24;;;;;;;8.87;6.80;;;10.30;99.90;;;;;;2609692;54;20411;-80
2022/03/14 02:51:51;;;;;;;10.93;6.10;;;10.40;99.90;;;;;;2612376;54;20424;-81
2022/03/14 02:54:17;;;;;;;9.70;7.30;;;10.30;99.90;;;;;;2614236;54;20990;-81
2022/03/14 02:56:43;;;;;;;7.50;6.47;;;10.20;99.90;;;;;;2613023;54;20498;-81
2022/03/14 02:59:11;;;;;;;8.43;6.20;;;10.10;99.90;;;;;;2611975;54;20435;-81
2022/03/14 03:01:39;;;;;;;8.60;6.40;;;10.10;99.90;;;;;;2610388;47;21658;-79
2022/03/14 03:04:05;;;;;;;7.90;7.10;;;10.00;99.90;;;;;;2610288;39;23005;-80
2022/03/14 03:06:33;;;;;;;10.13;8.10;;;10.00;99.90;;;;;;2610430;46;20457;-79
2022/03/14 03:09:03;;;;;;;7.53;6.80;;;9.90;99.90;;;;;;2610649;54;20178;-79
2022/03/14 03:11:29;;;;;;;11.10;8.73;;;9.80;99.90;;;;;;2610204;54;20414;-79
2022/03/14 03:13:56;;;;;;;10.70;7.70;;;9.70;99.90;;;;;;2610349;54;20584;-79
2022/03/14 03:16:22;;;;;;;9.50;7.67;;;9.70;99.90;;;;;;2609393;54;20444;-79
2022/03/14 03:18:48;;;;;;;11.57;7.80;;;9.70;99.90;;;;;;2610946;54;21493;-79
2022/03/14 03:21:39;;;;;;;9.60;7.57;;;9.60;99.90;;;;;;2610750;39;20760;-79
2022/03/14 03:24:07;;;;;;;9.60;7.07;;;9.60;99.90;;;;;;2609856;54;20444;-79
2022/03/14 03:26:38;;;;;;;11.23;7.97;;;9.50;99.90;;;;;;2609450;54;20418;-79
2022/03/14 03:29:06;;;;;;;11.93;8.33;;;9.60;99.90;;;;;;2609228;54;20402;-79
2022/03/14 03:31:34;;;;;;;8.07;7.27;;;9.50;99.90;;;;;;2609230;54;20538;-78
2022/03/14 03:34:00;;;;;;;9.33;7.20;;;9.50;99.90;;;;;;2608791;54;20436;-79
2022/03/14 03:36:25;;;;;;;9.50;8.30;;;9.50;99.90;;;;;;2609514;54;20455;-79
2022/03/14 03:38:51;;;;;;;8.10;7.17;;;9.50;99.90;;;;;;2609704;54;20533;-79
2022/03/14 03:41:18;;;;;;;10.20;7.17;;;9.50;99.90;;;;;;2609891;46;20237;-79
2022/03/14 03:43:43;;;;;;;11.00;8.20;;;9.50;99.90;;;;;;2608137;54;20423;-78
2022/03/14 03:46:09;;;;;;;13.23;9.13;;;9.50;99.90;;;;;;2609634;51;20181;-78
2022/03/14 03:48:35;;;;;;;11.23;8.77;;;9.40;99.90;;;;;;2609825;47;20169;-78
2022/03/14 03:51:01;;;;;;;9.30;7.50;;;9.40;99.90;;;;;;2608688;50;20173;-79
2022/03/14 03:53:27;;;;;;;9.83;8.83;;;9.40;99.90;;;;;;2608810;47;20722;-77
2022/03/14 03:56:19;;;;;;;10.73;8.30;;;9.50;99.90;;;;;;2609390;47;20456;-78
2022/03/14 03:58:46;;;;;;;9.23;8.33;;;9.50;99.90;;;;;;2609332;54;20446;-78
2022/03/14 04:01:19;;;;;;;10.40;8.40;;;9.40;99.90;;;;;;2609767;54;20426;-78
2022/03/14 04:03:49;;;;;;;9.80;8.80;;;9.50;99.90;;;;;;2609927;47;20434;-78
2022/03/14 04:06:19;;;;;;;11.40;9.33;;;9.40;99.90;;;;;;2609172;54;20481;-79
2022/03/14 04:08:47;;;;;;;9.30;8.00;;;9.50;99.90;;;;;;2609866;54;20534;-78
2022/03/14 04:11:13;;;;;;;10.50;8.00;;;9.50;99.90;;;;;;2609629;54;20444;-78
2022/03/14 04:13:39;;;;;;;10.80;9.67;;;9.50;99.90;;;;;;2608343;54;20931;-78
2022/03/14 04:16:32;;;;;;;11.50;9.00;;;9.50;99.90;;;;;;2609930;54;20406;-79
2022/03/14 04:18:58;;;;;;;11.63;8.47;;;9.40;99.90;;;;;;2611129;54;20411;-78
2022/03/14 04:21:24;;;;;;;9.90;7.90;;;9.40;99.90;;;;;;2613403;51;20452;-78
2022/03/14 04:23:51;;;;;;;9.07;7.73;;;9.40;99.90;;;;;;2608553;54;20154;-78
2022/03/14 04:26:19;;;;;;;9.53;8.60;;;9.50;99.90;;;;;;2608615;47;20503;-78
2022/03/14 04:28:44;;;;;;;11.60;8.40;;;9.50;99.90;;;;;;2609052;46;20481;-78
2022/03/14 04:31:12;;;;;;;11.90;8.30;;;9.40;99.90;;;;;;2609801;47;20525;-77
2022/03/14 04:33:38;;;;;;;10.20;8.70;;;9.30;99.90;;;;;;2610046;31;20659;-77
2022/03/14 04:36:05;;;;;;;11.60;8.20;;;9.40;99.90;;;;;;2608802;54;20423;-77
2022/03/14 04:38:31;;;;;;;11.67;9.17;;;9.30;99.90;;;;;;2608439;47;20435;-77
2022/03/14 04:40:57;;;;;;;13.57;8.53;;;9.30;99.90;;;;;;2609559;47;20542;-77
2022/03/14 04:43:24;;;;;;;8.60;7.57;;;9.30;99.90;;;;;;2609105;54;20415;-77
2022/03/14 04:45:50;;;;;;;11.60;9.03;;;9.40;99.90;;;;;;2610060;47;20272;-78
2022/03/14 04:48:17;;;;;;;11.37;8.37;;;9.50;99.90;;;;;;2609512;54;20430;-77
2022/03/14 04:50:43;;;;;;;8.97;7.77;;;9.50;99.90;;;;;;2609558;47;20422;-77
2022/03/14 04:53:10;;;;;;;10.30;7.50;;;9.60;99.90;;;;;;2608971;54;20441;-78
2022/03/14 04:55:36;;;;;;;11.43;8.33;;;9.50;99.90;;;;;;2609566;54;20418;-77
2022/03/14 04:58:03;;;;;;;10.10;8.10;;;9.50;99.90;;;;;;2610186;54;20537;-79
2022/03/14 05:00:30;;;;;;;10.63;8.47;;;9.40;99.90;;;;;;2609667;54;20422;-78
2022/03/14 05:03:03;;;;;;;12.60;8.20;;;9.40;99.90;;;;;;2610638;54;21157;-79
2022/03/14 05:05:33;;;;;;;11.50;8.13;;;9.40;99.90;;;;;;2611222;51;20425;-78
2022/03/14 05:07:59;;;;;;;11.70;9.53;;;9.40;99.90;;;;;;2610535;54;20438;-79
2022/03/14 05:10:25;;;;;;;10.93;8.00;;;9.40;99.90;;;;;;2608850;54;20423;-78
2022/03/14 05:12:53;;;;;;;9.83;8.70;;;9.40;99.90;;;;;;2610822;54;20428;-78
2022/03/14 05:15:19;;;;;;;12.43;9.57;;;9.50;99.90;;;;;;2608968;47;20964;-79
2022/03/14 05:18:09;;;;;;;12.00;10.20;;;9.40;99.90;;;;;;2610959;54;20525;-79
2022/03/14 05:20:37;;;;;;;12.33;10.33;;;9.50;99.90;;;;;;2609261;54;20435;-78
2022/03/14 05:23:03;;;;;;;12.83;10.37;;;9.40;99.90;;;;;;2609759;54;20424;-78
2022/03/14 05:25:30;;;;;;;11.93;10.50;;;9.30;99.90;;;;;;2611326;47;20414;-78
2022/03/14 05:27:56;;;;;;;13.17;11.73;;;9.20;99.90;;;;;;2612812;54;20451;-79
2022/03/14 05:30:24;;;;;;;14.63;10.37;;;9.20;99.90;;;;;;2614387;31;20907;-79
2022/03/14 05:32:51;;;;;;;12.03;10.73;;;9.20;99.90;;;;;;2611870;54;20454;-79
2022/03/14 05:35:18;;;;;;;12.23;10.43;;;9.30;99.90;;;;;;2614015;54;20407;-79
2022/03/14 05:37:46;;;;;;;14.07;11.67;;;9.40;99.90;;;;;;2614480;46;20425;-79
2022/03/14 05:40:15;;;;;;;15.10;11.03;;;9.30;99.90;;;;;;2614219;54;20429;-80
2022/03/14 05:42:45;;;;;;;15.10;11.10;;;9.30;99.90;;;;;;2613965;54;20442;-80
2022/03/14 05:45:12;;;;;;;19.50;13.10;;;9.30;99.90;;;;;;2614206;54;20524;-78
2022/03/14 05:47:39;;;;;;;13.50;11.60;;;9.30;99.90;;;;;;2614875;47;20423;-80
2022/03/14 05:50:07;;;;;;;14.60;12.63;;;9.20;99.90;;;;;;2610661;54;20418;-79
2022/03/14 05:52:33;;;;;;;19.43;14.00;;;9.20;99.90;;;;;;2610574;39;20843;-80
2022/03/14 05:55:25;;;;;;;15.57;13.33;;;9.20;99.90;;;;;;2611331;47;20421;-80
2022/03/14 05:57:52;;;;;;;10.70;8.87;;;9.10;99.90;;;;;;2611170;54;20986;-80
2022/03/14 06:00:25;;;;;;;16.70;13.07;;;9.10;99.90;;;;;;2610631;39;20935;-79
2022/03/14 06:02:53;;;;;;;16.77;13.70;;;9.10;99.90;;;;;;2610830;54;20516;-80
2022/03/14 06:05:22;;;;;;;12.33;10.80;;;9.10;99.90;;;;;;2611479;54;20409;-80
2022/03/14 06:07:49;;;;;;;17.27;12.73;;;9.10;99.90;;;;;;2611936;54;20441;-79
2022/03/14 06:10:45;;;;;;;15.03;11.70;;;9.10;99.90;;;;;;2611512;54;20456;-81
2022/03/14 06:13:13;;;;;;;16.50;12.83;;;9.10;99.90;;;;;;2611372;54;20423;-81
2022/03/14 06:15:41;;;;;;;17.03;12.20;;;9.10;99.90;;;;;;2611096;54;20425;-80
2022/03/14 06:18:33;;;;;;;13.37;11.77;;;9.10;99.90;;;;;;2609551;47;20420;-79
2022/03/14 06:20:59;;;;;;;17.87;13.20;;;9.10;99.90;;;;;;2610882;54;20460;-81
2022/03/14 06:23:25;;;;;;;19.67;14.70;;;9.10;99.90;;;;;;2611684;54;20416;-82
2022/03/14 06:25:54;;;;;;;19.87;13.40;;;9.10;99.90;;;;;;2609847;47;20984;-81
2022/03/14 06:28:50;;;;;;;16.00;12.07;;;9.20;99.90;;;;;;2610280;54;20387;-80
2022/03/14 06:31:36;;;;;;;13.83;10.43;;;9.20;99.90;;;;;;2609956;47;20503;-81
2022/03/14 06:34:10;;;;;;;15.40;12.77;;;9.20;99.90;;;;;;2609813;47;20437;-81
2022/03/14 06:36:37;;;;;;;13.40;9.87;;;9.10;99.90;;;;;;2608958;54;20408;-81
2022/03/14 06:39:05;;;;;;;15.27;12.87;;;9.10;99.90;;;;;;2609213;47;20545;-80
2022/03/14 06:41:31;;;;;;;14.03;10.50;;;9.10;99.90;;;;;;2610037;54;20573;-79
2022/03/14 06:43:57;;;;;;;15.93;10.70;;;9.10;99.90;;;;;;2607078;54;20215;-80
2022/03/14 06:46:24;;;;;;;13.23;10.30;;;9.20;99.90;;;;;;2609438;54;21685;-80
2022/03/14 06:48:51;;;;;;;12.47;10.63;;;9.20;99.90;;;;;;2608453;54;20441;-80
2022/03/14 06:51:17;;;;;;;15.47;10.87;;;9.20;99.90;;;;;;2608276;48;20430;-81
2022/03/14 06:53:43;;;;;;;13.93;12.17;;;9.20;99.90;;;;;;2610782;54;21016;-80
2022/03/14 06:56:09;;;;;;;13.47;9.90;;;9.10;99.90;;;;;;2611925;54;20421;-82
2022/03/14 06:58:36;;;;;;;12.23;10.90;;;9.10;99.90;;;;;;2612176;47;20413;-82
2022/03/14 07:01:07;;;;;;;13.90;10.87;;;9.10;99.90;;;;;;2611869;54;20427;-81
2022/03/14 07:03:33;;;;;;;15.47;10.80;;;9.10;99.90;;;;;;2612394;54;20438;-81
2022/03/14 07:06:02;;;;;;;12.40;11.10;;;9.20;99.90;;;;;;2612614;54;20429;-81
2022/03/14 07:08:29;;;;;;;13.33;9.70;;;9.20;99.90;;;;;;2611139;47;20177;-81
2022/03/14 07:10:54;;;;;;;10.47;9.37;;;9.20;99.90;;;;;;2611348;54;20411;-82
2022/03/14 07:13:21;;;;;;;13.30;9.53;;;9.30;99.90;;;;;;2612674;54;20503;-83
2022/03/14 07:15:47;;;;;;;9.70;8.30;;;9.20;99.90;;;;;;2612805;54;20184;-82
2022/03/14 07:18:37;;;;;;;15.77;11.50;;;9.20;99.90;;;;;;2612949;54;20421;-80
2022/03/14 07:21:03;;;;;;;14.17;9.63;;;9.10;99.90;;;;;;2610944;54;20434;-81
2022/03/14 07:23:29;;;;;;;12.90;9.30;;;9.10;99.90;;;;;;2612058;46;20507;-82
2022/03/14 07:26:01;;;;;;;9.03;7.67;;;9.10;99.90;;;;;;2611970;47;20186;-82
2022/03/14 07:28:29;;;;;;;12.27;8.70;;;9.10;99.90;;;;;;2611237;47;20430;-80
2022/03/14 07:30:55;;;;;;;11.80;8.30;;;9.10;99.90;;;;;;2611862;54;20955;-81
2022/03/14 07:33:21;;;;;;;9.70;7.90;;;9.10;99.90;;;;;;2611644;54;20432;-81
2022/03/14 07:35:50;;;;;;;9.20;7.70;;;9.10;99.90;;;;;;2611721;54;20430;-81
2022/03/14 07:38:16;;;;;;;10.60;9.23;;;9.10;99.90;;;;;;2611302;54;20422;-81
2022/03/14 07:40:42;;;;;;;9.23;7.40;;;9.20;99.90;;;;;;2613313;54;20434;-80
2022/03/14 07:43:08;;;;;;;11.10;7.33;;;9.20;99.90;;;;;;2611031;54;20522;-80
2022/03/14 07:45:34;;;;;;;12.30;8.70;;;9.30;99.90;;;;;;2611326;47;20438;-80
2022/03/14 07:48:03;;;;;;;8.63;7.10;;;9.20;99.90;;;;;;2610536;54;20555;-81
2022/03/14 07:50:29;;;;;;;9.27;7.73;;;9.30;99.90;;;;;;2610867;47;20429;-82
2022/03/14 07:52:56;;;;;;;9.00;7.10;;;9.40;99.90;;;;;;2611121;47;20434;-80
2022/03/14 07:55:24;;;;;;;10.30;8.30;;;9.40;99.90;;;;;;2613360;54;20390;-80
2022/03/14 07:57:50;;;;;;;9.47;7.00;;;9.40;99.90;;;;;;2616392;47;20409;-82
2022/03/14 08:00:20;;;;;;;10.50;8.57;;;9.50;99.90;;;;;;2614328;54;20500;-81
2022/03/14 08:02:47;;;;;;;7.77;6.97;;;9.40;99.90;;;;;;2613481;46;20438;-81
2022/03/14 08:05:15;;;;;;;8.87;7.10;;;9.50;99.90;;;;;;2612517;47;20458;-81
2022/03/14 08:07:46;;;;;;;10.30;7.47;;;9.50;99.90;;;;;;2616359;54;20385;-82
2022/03/14 08:10:15;;;;;;;8.93;7.37;;;9.50;99.90;;;;;;2617584;47;20522;-82
2022/03/14 08:12:55;;;;;;;16.43;7.87;;;9.50;99.90;;;;;;2615064;47;20426;-83
2022/03/14 08:15:30;;;;;;;12.03;8.27;;;9.50;99.90;;;;;;2613273;46;20524;-81
2022/03/14 08:17:58;;;;;;;13.00;8.60;;;9.50;99.90;;;;;;2613686;47;20456;-82
2022/03/14 08:20:26;;;;;;;8.00;7.03;;;9.60;99.90;;;;;;2612619;54;20426;-81
2022/03/14 08:22:57;;;;;;;9.20;7.77;;;9.60;99.90;;;;;;2615286;31;20932;-82
2022/03/14 08:25:34;;;;;;;11.30;7.67;;;9.60;99.90;;;;;;2617021;54;20414;-85
2022/03/14 08:28:01;;;;;;;10.23;6.93;;;9.60;99.90;;;;;;2614928;54;20399;-81
2022/03/14 08:30:52;;;;;;;9.30;7.73;;;9.70;99.90;;;;;;2614522;54;20461;-83
2022/03/14 08:33:21;;;;;;;8.20;7.40;;;9.80;99.90;;;;;;2612676;46;20501;-81
2022/03/14 08:35:48;;;;;;;11.33;8.00;;;9.80;99.90;;;;;;2615234;47;20525;-82
2022/03/14 08:38:17;;;;;;;9.23;7.17;;;9.80;99.90;;;;;;2615917;39;21291;-83
2022/03/14 08:40:43;;;;;;;14.00;8.30;;;9.90;99.90;;;;;;2616620;47;20475;-82
2022/03/14 08:43:09;;;;;;;7.90;6.17;;;9.90;99.90;;;;;;2619708;39;20816;-83
2022/03/14 08:45:35;;;;;;;12.60;7.93;;;9.90;99.90;;;;;;2617707;54;20505;-84
2022/03/14 08:48:03;;;;;;;16.93;8.40;;;10.00;99.90;;;;;;2619071;47;20415;-82
2022/03/14 08:50:32;;;;;;;11.00;8.03;;;10.00;99.90;;;;;;2617634;47;20423;-81
2022/03/14 08:52:58;;;;;;;10.90;7.80;;;10.10;99.90;;;;;;2616232;47;20418;-82
2022/03/14 08:55:25;;;;;;;11.60;9.70;;;10.20;99.90;;;;;;2615560;54;20433;-83
2022/03/14 08:58:18;;;;;;;11.93;8.50;;;10.20;99.90;;;;;;2617442;47;20159;-82
2022/03/14 09:00:44;;;;;;;12.03;7.10;;;10.30;99.90;;;;;;2618604;47;20437;-81
2022/03/14 09:03:17;;;;;;;7.40;6.47;;;10.20;99.90;;;;;;2620558;39;20916;-83
2022/03/14 09:06:09;;;;;;;12.40;8.13;;;10.10;99.90;;;;;;2620191;47;20502;-82
2022/03/14 09:08:36;;;;;;;10.00;5.77;;;10.20;99.90;;;;;;2617728;47;20437;-83
2022/03/14 09:11:02;;;;;;;10.37;8.43;;;10.20;99.90;;;;;;2619424;47;20445;-83
2022/03/14 09:13:29;;;;;;;13.53;7.80;;;10.20;99.90;;;;;;2618039;46;20438;-83
2022/03/14 09:16:26;;;;;;;15.47;7.90;;;10.30;99.90;;;;;;2614581;54;20421;-83
2022/03/14 09:18:54;;;;;;;12.80;8.03;;;10.40;99.90;;;;;;2615880;47;20414;-84
2022/03/14 09:21:21;;;;;;;18.50;9.27;;;10.40;99.90;;;;;;2615750;47;21492;-83
2022/03/14 09:23:47;;;;;;;11.03;8.90;;;10.30;99.90;;;;;;2615784;47;20457;-83
2022/03/14 09:26:19;;;;;;;11.33;7.70;;;10.40;99.90;;;;;;2615451;54;20426;-84
2022/03/14 09:28:50;;;;;;;11.97;8.73;;;10.40;99.90;;;;;;2613712;47;20433;-84
2022/03/14 09:32:15;;;;;;;12.67;8.90;;;10.40;99.90;;;;;;2614253;47;20445;-84
2022/03/14 09:34:50;;;;;;;13.40;8.83;;;10.50;99.90;;;;;;2612192;47;20427;-83
2022/03/14 09:37:22;;;;;;;12.00;9.67;;;10.50;99.90;;;;;;2611695;54;20531;-84
2022/03/14 09:39:54;;;;;;;11.50;7.93;;;10.50;99.90;;;;;;2611807;46;20417;-83
2022/03/14 09:42:26;;;;;;;13.00;8.83;;;10.50;99.90;;;;;;2617113;47;21120;-84
2022/03/14 09:45:25;;;;;;;14.60;8.57;;;10.70;99.90;;;;;;2617198;54;20421;-82
2022/03/14 09:48:26;;;;;;;15.00;7.57;;;10.80;99.90;;;;;;2617018;47;20589;-83
2022/03/14 09:51:33;;;;;;;13.37;9.57;;;10.90;99.90;;;;;;2615350;39;20828;-83
2022/03/14 09:53:59;;;;;;;12.20;8.07;;;10.90;99.90;;;;;;2615782;46;21025;-83
2022/03/14 09:56:31;;;;;;;16.53;8.70;;;10.90;99.90;;;;;;2610642;47;21394;-83
2022/03/14 09:58:58;;;;;;;14.70;10.60;;;10.90;99.90;;;;;;2610581;54;20457;-82
2022/03/14 10:01:56;;;;;;;15.23;8.43;;;10.90;99.90;;;;;;2611459;46;22232;-81
2022/03/14 10:04:24;;;;;;;12.20;8.97;;;10.90;99.90;;;;;;2611861;46;20459;-82
2022/03/14 10:06:52;;;;;;;13.60;9.00;;;11.00;99.90;;;;;;2611016;47;20448;-82
2022/03/14 10:09:20;;;;;;;9.43;7.97;;;11.10;99.90;;;;;;2611379;47;20517;-81
2022/03/14 10:11:52;;;;;;;17.10;7.33;;;11.30;99.90;;;;;;2611695;54;20416;-83
2022/03/14 10:15:00;;;;;;;8.83;6.07;;;11.30;99.90;;;;;;2611093;54;20935;-82
2022/03/14 10:17:27;;;;;;;10.10;6.30;;;11.20;99.90;;;;;;2611329;54;20419;-81
2022/03/14 10:20:00;;;;;;;9.03;6.10;;;11.30;99.90;;;;;;2610057;39;21058;-82
2022/03/14 10:22:52;;;;;;;8.17;6.40;;;11.20;99.90;;;;;;2611171;54;20426;-81
2022/03/14 10:25:20;;;;;;;17.43;6.20;;;11.10;99.90;;;;;;2610231;47;20425;-81
2022/03/14 10:28:13;;;;;;;8.10;5.53;;;11.10;99.90;;;;;;2611258;47;20428;-80
2022/03/14 10:30:53;;;;;;;11.27;7.40;;;10.90;99.90;;;;;;2610513;54;20413;-83
2022/03/14 10:33:30;;;;;;;8.13;6.80;;;10.90;99.90;;;;;;2611669;47;20418;-83
2022/03/14 10:36:11;;;;;;;9.00;6.40;;;10.80;99.90;;;;;;2610575;54;20526;-82
2022/03/14 10:38:53;;;;;;;17.43;7.60;;;10.80;99.90;;;;;;2611675;54;20454;-82
2022/03/14 10:42:04;;;;;;;7.10;5.57;;;10.80;99.90;;;;;;2611208;54;20451;-82
2022/03/14 10:44:58;;;;;;;12.00;5.27;;;10.80;99.90;;;;;;2610843;39;20748;-82
2022/03/14 10:47:27;;;;;;;7.83;7.03;;;10.70;99.90;;;;;;2612126;54;20424;-83
2022/03/14 10:49:58;;;;;;;9.03;5.80;;;10.80;99.90;;;;;;2610335;47;20479;-82
2022/03/14 10:52:23;;;;;;;12.53;7.97;;;10.70;99.90;;;;;;2611933;47;20511;-82
2022/03/14 10:55:15;;;;;;;7.30;5.87;;;10.80;99.90;;;;;;2611389;47;20454;-83
2022/03/14 10:57:47;;;;;;;14.33;6.80;;;10.80;99.90;;;;;;2612297;47;20510;-82
2022/03/14 11:00:44;;;;;;;11.27;7.33;;;10.90;99.90;;;;;;2612062;47;20427;-81
2022/03/14 11:03:20;;;;;;;8.40;6.33;;;11.00;99.90;;;;;;2611677;54;20411;-82
2022/03/14 11:05:49;;;;;;;13.10;6.97;;;11.10;99.90;;;;;;2612030;47;20493;-80
2022/03/14 11:08:50;;;;;;;6.50;5.30;;;11.20;99.90;;;;;;2612004;54;20594;-81
2022/03/14 11:11:25;;;;;;;10.63;6.20;;;11.20;99.90;;;;;;2611089;54;20434;-81
2022/03/14 11:13:55;;;;;;;6.27;5.67;;;11.20;99.90;;;;;;2610961;47;20439;-82
2022/03/14 11:16:24;;;;;;;7.90;5.37;;;11.40;99.90;;;;;;2612746;47;20465;-82
2022/03/14 11:18:52;;;;;;;8.10;7.30;;;11.60;99.90;;;;;;2611352;54;20398;-82
2022/03/14 11:21:20;;;;;;;8.20;7.40;;;11.90;99.90;;;;;;2611569;47;20463;-81
2022/03/14 11:23:50;;;;;;;6.93;6.23;;;12.40;99.90;;;;;;2610793;47;20415;-81
2022/03/14 11:26:24;;;;;;;6.60;5.83;;;13.10;99.90;;;;;;2611824;39;20537;-81
2022/03/14 11:28:54;;;;;;;10.67;6.90;;;13.80;99.90;;;;;;2610970;54;20432;-81
2022/03/14 11:31:48;;;;;;;21.23;7.43;;;13.90;99.90;;;;;;2610224;54;20408;-81
2022/03/14 11:34:17;;;;;;;10.17;8.10;;;13.30;99.90;;;;;;2610577;54;20427;-80
2022/03/14 11:36:43;;;;;;;7.90;7.10;;;12.90;99.90;;;;;;2609342;47;20541;-80
2022/03/14 11:39:10;;;;;;;11.33;8.07;;;12.70;99.90;;;;;;2610099;39;20835;-80
2022/03/14 11:41:38;;;;;;;14.23;8.80;;;12.60;99.90;;;;;;2610880;54;20480;-79
2022/03/14 11:44:06;;;;;;;9.53;6.90;;;12.50;99.90;;;;;;2612207;54;20515;-80
2022/03/14 11:46:35;;;;;;;8.93;7.70;;;12.50;99.90;;;;;;2611221;54;20573;-80
2022/03/14 11:49:31;;;;;;;10.50;8.30;;;12.50;99.90;;;;;;2609820;54;20435;-80
2022/03/14 11:52:12;;;;;;;14.43;9.30;;;13.20;99.90;;;;;;2610239;54;20496;-80
2022/03/14 11:54:44;;;;;;;8.57;7.67;;;13.80;99.90;;;;;;2610106;47;20408;-81
2022/03/14 11:57:10;;;;;;;11.97;7.67;;;14.70;90.20;;;;;;2610307;54;21066;-81
2022/03/14 11:59:37;;;;;;;12.17;10.23;;;15.00;76.00;;;;;;2610835;47;20458;-80
2022/03/14 12:02:07;;;;;;;13.10;11.30;;;14.70;72.00;;;;;;2610971;54;20411;-79
2022/03/14 12:04:38;;;;;;;13.40;9.70;;;14.20;69.90;;;;;;2611179;47;20961;-79
2022/03/14 12:07:30;;;;;;;12.17;9.57;;;13.70;74.70;;;;;;2610333;47;20445;-80
2022/03/14 12:09:59;;;;;;;14.57;9.80;;;13.40;82.80;;;;;;2610340;54;20408;-81
2022/03/14 12:12:29;;;;;;;13.43;8.63;;;13.40;84.90;;;;;;2610458;54;20480;-80
2022/03/14 12:14:57;;;;;;;9.97;8.57;;;13.40;72.10;;;;;;2610905;47;20432;-80
2022/03/14 12:17:25;;;;;;;12.63;9.20;;;13.10;71.90;;;;;;2610592;47;20430;-80
2022/03/14 12:19:56;;;;;;;12.67;9.33;;;12.90;75.70;;;;;;2610332;47;20431;-81
2022/03/14 12:23:18;;;;;;;9.47;8.03;;;12.80;77.10;;;;;;2610098;54;20410;-80
2022/03/14 12:25:46;;;;;;;11.07;8.67;;;12.80;76.50;;;;;;2610607;54;20957;-81
2022/03/14 12:28:34;;;;;;;10.73;7.63;;;12.90;80.00;;;;;;2610228;47;21019;-82
2022/03/14 12:31:20;;;;;;;12.23;7.60;;;12.80;78.80;;;;;;2610821;47;20416;-79
2022/03/14 12:33:48;;;;;;;13.00;7.57;;;12.80;78.00;;;;;;2610110;54;20435;-80
2022/03/14 12:36:23;;;;;;;8.60;7.43;;;12.80;80.60;;;;;;2610395;51;20431;-80
2022/03/14 12:39:09;;;;;;;11.83;8.33;;;13.00;78.30;;;;;;2610489;47;21050;-80
2022/03/14 12:41:44;;;;;;;13.50;7.93;;;12.90;74.20;;;;;;2610917;47;20459;-81
2022/03/14 12:44:25;;;;;;;10.37;8.23;;;12.80;74.20;;;;;;2611178;47;20431;-80
2022/03/14 12:46:53;;;;;;;9.03;6.90;;;12.90;74.10;;;;;;2611257;54;20419;-82
2022/03/14 12:49:45;;;;;;;9.87;7.03;;;12.90;73.80;;;;;;2611239;47;20432;-80
2022/03/14 12:52:21;;;;;;;11.57;7.23;;;12.70;75.90;;;;;;2611316;47;20427;-81
2022/03/14 12:55:19;;;;;;;12.30;6.27;;;12.60;76.00;;;;;;2611911;47;20427;-81
2022/03/14 12:57:56;;;;;;;9.87;5.83;;;12.60;75.40;;;;;;2611437;47;22044;-80
2022/03/14 13:00:22;;;;;;;7.50;5.93;;;12.50;80.90;;;;;;2611187;54;21114;-81
2022/03/14 13:02:49;;;;;;;12.03;6.00;;;12.50;80.20;;;;;;2610039;46;20431;-80